Time;durP1;ratioP1;P1;durP2;ratioP2;P2;SDS_P1;SDS_P2;PMS_P1;PMS_P2;Temp;Humidity;BMP_temperature;BMP_pressure;BME280_temperature;BME280_humidity;BME280_pressure;Samples;Min_cycle;Max_cycle;Signal;HPM_P1;HPM_P2
2021/11/09 00:01:07;;;;;;;13.77;4.33;;;8.60;99.90;;;;;;5070845;28;20201;-75
2021/11/09 00:03:42;;;;;;;14.00;4.60;;;8.60;99.90;;;;;;5071547;28;20302;-76
2021/11/09 00:06:16;;;;;;;13.13;4.43;;;8.60;99.90;;;;;;5071100;28;20670;-76
2021/11/09 00:08:48;;;;;;;9.23;4.47;;;8.60;99.90;;;;;;5070326;28;20285;-76
2021/11/09 00:11:15;;;;;;;14.07;4.57;;;8.60;99.90;;;;;;5071590;28;20279;-76
2021/11/09 00:13:43;;;;;;;10.93;4.37;;;8.60;99.90;;;;;;5074575;28;20209;-75
2021/11/09 00:16:10;;;;;;;16.13;4.77;;;8.60;99.90;;;;;;5074527;28;20247;-76
2021/11/09 00:18:39;;;;;;;9.43;4.13;;;8.60;99.90;;;;;;5074010;28;20202;-76
2021/11/09 00:21:07;;;;;;;16.87;5.00;;;8.60;99.90;;;;;;5075002;28;20251;-76
2021/11/09 00:23:33;;;;;;;14.07;5.03;;;8.60;99.90;;;;;;5062647;28;20202;-76
2021/11/09 00:26:00;;;;;;;14.03;4.43;;;8.60;99.90;;;;;;5074520;28;20284;-76
2021/11/09 00:28:27;;;;;;;14.50;4.33;;;8.60;99.90;;;;;;5073933;28;20198;-76
2021/11/09 00:30:54;;;;;;;11.47;3.87;;;8.60;99.90;;;;;;5066427;28;20285;-75
2021/11/09 00:33:21;;;;;;;10.60;4.03;;;8.50;99.90;;;;;;5074566;28;20205;-76
2021/11/09 00:35:50;;;;;;;9.30;4.03;;;8.50;99.90;;;;;;5074369;28;20202;-76
2021/11/09 00:38:17;;;;;;;9.57;3.90;;;8.50;99.90;;;;;;5073219;28;20218;-76
2021/11/09 00:40:45;;;;;;;10.83;4.10;;;8.50;99.90;;;;;;5074324;28;20543;-76
2021/11/09 00:43:14;;;;;;;11.07;4.87;;;8.50;99.90;;;;;;5074157;28;20204;-76
2021/11/09 00:45:41;;;;;;;11.83;4.53;;;8.50;99.90;;;;;;5058779;28;20214;-76
2021/11/09 00:48:09;;;;;;;7.83;3.90;;;8.50;99.90;;;;;;5068094;28;20637;-76
2021/11/09 00:50:38;;;;;;;13.00;4.10;;;8.50;99.90;;;;;;5073860;28;20194;-76
2021/11/09 00:53:08;;;;;;;9.23;4.00;;;8.50;99.90;;;;;;5074093;28;20255;-76
2021/11/09 00:55:36;;;;;;;10.53;3.77;;;8.50;99.90;;;;;;5074106;28;20709;-76
2021/11/09 00:58:04;;;;;;;8.77;4.00;;;8.50;99.90;;;;;;5069587;28;20313;-76
2021/11/09 01:00:33;;;;;;;7.50;3.60;;;8.50;99.90;;;;;;5073170;28;20199;-76
2021/11/09 01:03:02;;;;;;;15.27;4.30;;;8.50;99.90;;;;;;5074052;28;20202;-75
2021/11/09 01:05:30;;;;;;;10.63;3.90;;;8.50;99.90;;;;;;5073666;28;20195;-76
2021/11/09 01:07:59;;;;;;;8.80;4.10;;;8.50;99.90;;;;;;5072820;28;20199;-76
2021/11/09 01:10:30;;;;;;;9.50;3.73;;;8.50;99.90;;;;;;5073831;28;20552;-76
2021/11/09 01:12:57;;;;;;;8.73;3.90;;;8.50;99.90;;;;;;5073764;28;20570;-76
2021/11/09 01:15:25;;;;;;;9.40;3.70;;;8.50;99.90;;;;;;5073732;28;20571;-76
2021/11/09 01:17:52;;;;;;;8.83;4.00;;;8.40;99.90;;;;;;5072662;28;20211;-76
2021/11/09 01:20:22;;;;;;;10.50;4.27;;;8.40;99.90;;;;;;5073450;28;20577;-76
2021/11/09 01:22:51;;;;;;;9.00;4.33;;;8.40;99.90;;;;;;5073348;28;20293;-76
2021/11/09 01:25:18;;;;;;;8.93;4.23;;;8.40;99.90;;;;;;5072764;28;20194;-76
2021/11/09 01:27:48;;;;;;;10.10;3.97;;;8.50;99.90;;;;;;5072913;28;20651;-76
2021/11/09 01:30:17;;;;;;;11.13;3.77;;;8.50;99.90;;;;;;5073106;28;20538;-76
2021/11/09 01:32:44;;;;;;;10.50;4.13;;;8.50;99.90;;;;;;5073317;28;20202;-76
2021/11/09 01:35:12;;;;;;;11.67;4.37;;;8.50;99.90;;;;;;5073434;28;20208;-76
2021/11/09 01:37:40;;;;;;;8.77;3.80;;;8.50;99.90;;;;;;5071988;28;20210;-76
2021/11/09 01:40:09;;;;;;;6.23;3.80;;;8.50;99.90;;;;;;5073145;28;20202;-76
2021/11/09 01:42:36;;;;;;;8.30;4.20;;;8.50;99.90;;;;;;5068800;28;20195;-76
2021/11/09 01:45:07;;;;;;;12.33;4.43;;;8.50;99.90;;;;;;5065711;28;20208;-76
2021/11/09 01:47:34;;;;;;;11.17;4.37;;;8.50;99.90;;;;;;5071820;28;20190;-76
2021/11/09 01:50:01;;;;;;;10.10;4.83;;;8.50;99.90;;;;;;5073305;28;20583;-76
2021/11/09 01:52:28;;;;;;;7.17;4.20;;;8.40;99.90;;;;;;5068643;28;20225;-76
2021/11/09 01:54:56;;;;;;;12.03;4.47;;;8.40;99.90;;;;;;5072198;28;20206;-76
2021/11/09 01:57:23;;;;;;;11.83;4.20;;;8.50;99.90;;;;;;5071927;28;20258;-76
2021/11/09 01:59:50;;;;;;;10.73;4.33;;;8.50;99.90;;;;;;5072283;28;20202;-76
2021/11/09 02:02:19;;;;;;;6.87;3.70;;;8.50;99.90;;;;;;5072658;28;20202;-76
2021/11/09 02:04:46;;;;;;;11.90;4.00;;;8.50;99.90;;;;;;5072271;28;20210;-76
2021/11/09 02:07:13;;;;;;;9.70;4.57;;;8.50;99.90;;;;;;5078381;28;20197;-76
2021/11/09 02:09:40;;;;;;;11.07;4.50;;;8.50;99.90;;;;;;5070720;28;20228;-76
2021/11/09 02:12:08;;;;;;;11.43;4.80;;;8.50;99.90;;;;;;5072606;28;20461;-76
2021/11/09 02:14:35;;;;;;;11.27;4.47;;;8.50;99.90;;;;;;5072369;28;20198;-76
2021/11/09 02:17:02;;;;;;;12.90;4.70;;;8.40;99.90;;;;;;5072345;28;20226;-76
2021/11/09 02:19:30;;;;;;;10.73;4.57;;;8.50;99.90;;;;;;5071865;28;20204;-76
2021/11/09 02:21:59;;;;;;;15.07;4.70;;;8.50;99.90;;;;;;5067952;28;20203;-76
2021/11/09 02:24:26;;;;;;;12.93;5.17;;;8.50;99.90;;;;;;5067238;28;20201;-76
2021/11/09 02:26:53;;;;;;;11.00;4.73;;;8.50;99.90;;;;;;5072073;28;20205;-76
2021/11/09 02:29:20;;;;;;;11.97;4.93;;;8.50;99.90;;;;;;5071886;28;20206;-76
2021/11/09 02:31:47;;;;;;;8.33;4.50;;;8.50;99.90;;;;;;5072017;28;20281;-76
2021/11/09 02:34:14;;;;;;;10.20;4.87;;;8.50;99.90;;;;;;5071634;28;20230;-76
2021/11/09 02:36:41;;;;;;;12.67;4.87;;;8.50;99.90;;;;;;5071975;28;20198;-76
2021/11/09 02:39:10;;;;;;;14.13;5.57;;;8.50;99.90;;;;;;5054097;28;20250;-76
2021/11/09 02:41:37;;;;;;;10.03;4.50;;;8.50;99.90;;;;;;5056490;28;20194;-76
2021/11/09 02:44:05;;;;;;;12.90;5.37;;;8.50;99.90;;;;;;5072538;28;20233;-76
2021/11/09 02:46:40;;;;;;;12.10;4.77;;;8.50;99.90;;;;;;5070965;28;20272;-76
2021/11/09 02:49:13;;;;;;;10.17;4.90;;;8.50;99.90;;;;;;5071160;28;20202;-70
2021/11/09 02:51:44;;;;;;;10.63;4.83;;;8.50;99.90;;;;;;5071394;28;20205;-70
2021/11/09 02:54:17;;;;;;;11.30;4.70;;;8.50;99.90;;;;;;5060017;28;20206;-70
2021/11/09 02:56:48;;;;;;;9.47;4.23;;;8.50;99.90;;;;;;5070916;28;20230;-70
2021/11/09 02:59:27;;;;;;;13.40;4.93;;;8.50;99.90;;;;;;5070340;28;20229;-75
2021/11/09 03:01:57;;;;;;;10.23;4.87;;;8.50;99.90;;;;;;5070852;28;20202;-70
2021/11/09 03:04:37;;;;;;;12.07;4.87;;;8.50;99.90;;;;;;5069953;28;20206;-75
2021/11/09 03:07:08;;;;;;;11.50;4.80;;;8.50;99.90;;;;;;5068634;28;20652;-75
2021/11/09 03:09:42;;;;;;;12.83;5.03;;;8.40;99.90;;;;;;5050571;28;20209;-70
2021/11/09 03:12:11;;;;;;;10.40;4.73;;;8.40;99.90;;;;;;5065777;28;20210;-74
2021/11/09 03:14:39;;;;;;;8.77;4.90;;;8.40;99.90;;;;;;5071170;28;20210;-75
2021/11/09 03:17:16;;;;;;;11.60;4.90;;;8.50;99.90;;;;;;5071111;28;20421;-75
2021/11/09 03:19:45;;;;;;;12.00;4.97;;;8.40;99.90;;;;;;5071480;28;20233;-74
2021/11/09 03:44:45;;;;;;;10.83;4.90;;;8.40;99.90;;;;;;5028605;28;20210;-75
2021/11/09 03:47:15;;;;;;;12.30;4.83;;;8.40;99.90;;;;;;5055887;28;20205;-74
2021/11/09 03:49:44;;;;;;;9.77;5.03;;;8.40;99.90;;;;;;5074633;28;20198;-75
2021/11/09 03:52:17;;;;;;;11.40;5.20;;;8.40;99.90;;;;;;5068591;28;20230;-75
2021/11/09 03:54:45;;;;;;;12.30;5.80;;;8.40;99.90;;;;;;5055075;28;20573;-75
2021/11/09 03:57:18;;;;;;;13.13;5.90;;;8.40;99.90;;;;;;5068995;28;20236;-74
2021/11/09 03:59:54;;;;;;;12.17;5.97;;;8.40;99.90;;;;;;5075144;28;20194;-74
2021/11/09 04:02:27;;;;;;;14.30;5.07;;;8.40;99.90;;;;;;5074655;28;20566;-74
2021/11/09 04:04:56;;;;;;;9.33;5.07;;;8.40;99.90;;;;;;5075125;28;20206;-74
2021/11/09 04:07:30;;;;;;;11.07;5.10;;;8.40;99.90;;;;;;5074136;28;20675;-74
2021/11/09 04:10:14;;;;;;;14.17;5.80;;;8.40;99.90;;;;;;5074517;28;20289;-74
2021/11/09 04:15:41;;;;;;;16.20;6.47;;;8.40;99.90;;;;;;5074026;28;20205;-75
2021/11/09 04:18:33;;;;;;;11.73;5.63;;;8.40;99.90;;;;;;5072472;28;20225;-75
2021/11/09 04:21:16;;;;;;;12.83;6.17;;;8.30;99.90;;;;;;5054931;28;20647;-74
2021/11/09 04:29:23;;;;;;;15.40;6.13;;;8.40;99.90;;;;;;5054791;28;20202;-74
2021/11/09 04:53:48;;;;;;;14.03;6.43;;;8.30;99.90;;;;;;5091916;28;20237;-74
2021/11/09 05:02:03;;;;;;;11.57;7.30;;;8.40;99.90;;;;;;5097669;28;20269;-75
2021/11/09 05:10:03;;;;;;;13.40;6.83;;;8.40;99.90;;;;;;5089245;28;20254;-74
2021/11/09 05:12:30;;;;;;;15.17;7.77;;;8.40;99.90;;;;;;5107508;28;20201;-74
2021/11/09 05:14:57;;;;;;;15.97;7.90;;;8.40;99.90;;;;;;5130090;27;20204;-75
2021/11/09 05:17:25;;;;;;;13.93;7.67;;;8.40;99.90;;;;;;5122563;27;20223;-74
2021/11/09 05:19:53;;;;;;;16.20;8.40;;;8.40;99.90;;;;;;5130195;27;20291;-74
2021/11/09 05:22:20;;;;;;;17.10;8.07;;;8.40;99.90;;;;;;5114454;27;20209;-75
2021/11/09 05:24:46;;;;;;;15.40;8.53;;;8.40;99.90;;;;;;5088941;28;20205;-74
2021/11/09 05:27:15;;;;;;;15.97;8.77;;;8.40;99.90;;;;;;5088133;28;20210;-74
2021/11/09 05:29:43;;;;;;;17.40;7.27;;;8.40;99.90;;;;;;5088819;28;20660;-69
2021/11/09 05:32:10;;;;;;;14.33;7.87;;;8.40;99.90;;;;;;5087868;28;20202;-74
2021/11/09 05:34:37;;;;;;;15.47;7.53;;;8.40;99.90;;;;;;5087706;28;20551;-70
2021/11/09 05:37:09;;;;;;;16.90;7.80;;;8.30;99.90;;;;;;5087716;28;20312;-69
2021/11/09 05:39:43;;;;;;;15.97;8.23;;;8.40;99.90;;;;;;5087252;28;20660;-69
2021/11/09 05:42:10;;;;;;;15.70;8.40;;;8.40;99.90;;;;;;5087869;28;20635;-69
2021/11/09 05:44:37;;;;;;;14.73;7.77;;;8.40;99.90;;;;;;5087322;28;20612;-68
2021/11/09 05:47:05;;;;;;;20.83;9.63;;;8.30;99.90;;;;;;5084056;28;20547;-68
2021/11/09 05:49:32;;;;;;;17.37;9.50;;;8.40;99.90;;;;;;5073378;28;20295;-68
2021/11/09 05:51:59;;;;;;;19.37;9.20;;;8.40;99.90;;;;;;5074327;28;20448;-68
2021/11/09 05:54:27;;;;;;;21.50;10.03;;;8.50;99.90;;;;;;5073599;28;20210;-68
2021/11/09 05:56:55;;;;;;;24.77;10.60;;;8.50;99.90;;;;;;5073654;28;20219;-68
2021/11/09 05:59:22;;;;;;;22.03;10.20;;;8.50;99.90;;;;;;5073202;28;20253;-68
2021/11/09 06:01:49;;;;;;;20.17;10.30;;;8.50;99.90;;;;;;5073723;28;20244;-68
2021/11/09 06:04:16;;;;;;;20.57;10.00;;;8.40;99.90;;;;;;5073847;28;20275;-68
2021/11/09 06:06:44;;;;;;;20.33;10.13;;;8.40;99.90;;;;;;5073711;28;20206;-74
2021/11/09 06:09:11;;;;;;;17.77;9.40;;;8.40;99.90;;;;;;5073367;28;20605;-74
2021/11/09 06:11:39;;;;;;;20.10;9.60;;;8.40;99.90;;;;;;5084921;28;20209;-74
2021/11/09 06:14:07;;;;;;;18.37;9.23;;;8.40;99.90;;;;;;5092652;28;20612;-74
2021/11/09 06:16:35;;;;;;;20.57;11.40;;;8.40;99.90;;;;;;5093339;28;20221;-74
2021/11/09 06:19:02;;;;;;;26.47;13.23;;;8.40;99.90;;;;;;5093290;28;20212;-75
2021/11/09 06:21:29;;;;;;;22.23;11.70;;;8.40;99.90;;;;;;5093581;28;20275;-75
2021/11/09 06:23:56;;;;;;;22.17;11.37;;;8.40;99.90;;;;;;5092919;28;20266;-74
2021/11/09 06:26:24;;;;;;;22.20;10.97;;;8.40;99.90;;;;;;5094026;28;20607;-68
2021/11/09 06:28:57;;;;;;;27.67;14.33;;;8.40;99.90;;;;;;5093244;28;20247;-69
2021/11/09 06:31:24;;;;;;;26.67;13.67;;;8.40;99.90;;;;;;5094034;28;20220;-74
2021/11/09 06:33:51;;;;;;;30.57;16.47;;;8.50;99.90;;;;;;5093877;28;20205;-75
2021/11/09 06:36:18;;;;;;;31.90;17.20;;;8.40;99.90;;;;;;5093862;28;20253;-74
2021/11/09 06:38:46;;;;;;;32.83;17.33;;;8.50;99.90;;;;;;5092956;28;20194;-74
2021/11/09 06:41:13;;;;;;;33.57;17.20;;;8.50;99.90;;;;;;5093859;28;20193;-74
2021/11/09 06:43:40;;;;;;;36.50;17.53;;;8.60;99.90;;;;;;5093664;28;20198;-74
2021/11/09 06:46:09;;;;;;;38.00;17.83;;;8.50;99.90;;;;;;5073572;28;20211;-74
2021/11/09 06:48:36;;;;;;;28.43;16.67;;;8.60;99.90;;;;;;5072753;28;20198;-74
2021/11/09 06:51:04;;;;;;;34.00;17.47;;;8.60;99.90;;;;;;5073381;28;20202;-74
2021/11/09 06:53:31;;;;;;;38.63;18.60;;;8.60;99.90;;;;;;5073057;28;20301;-74
2021/11/09 06:55:58;;;;;;;37.43;18.20;;;8.60;99.90;;;;;;5073216;28;20249;-69
2021/11/09 06:58:25;;;;;;;36.60;18.00;;;8.60;99.90;;;;;;5072576;28;20202;-74
2021/11/09 07:00:52;;;;;;;34.43;18.97;;;8.60;99.90;;;;;;5072426;28;20206;-74
2021/11/09 07:03:21;;;;;;;39.17;19.60;;;8.60;99.90;;;;;;5073136;28;20206;-74
2021/11/09 07:05:48;;;;;;;34.27;17.53;;;8.70;99.90;;;;;;5084365;28;20209;-74
2021/11/09 07:08:15;;;;;;;35.93;18.13;;;8.70;99.90;;;;;;5081751;28;20199;-74
2021/11/09 07:10:43;;;;;;;40.27;18.30;;;8.70;99.90;;;;;;5072855;28;20265;-74
2021/11/09 07:13:10;;;;;;;38.53;19.47;;;8.80;99.90;;;;;;5072926;28;20198;-74
2021/11/09 07:15:37;;;;;;;39.53;19.17;;;8.80;99.90;;;;;;5072953;28;20730;-74
2021/11/09 07:18:05;;;;;;;38.13;18.17;;;8.80;99.90;;;;;;5071952;28;20757;-74
2021/11/09 07:20:36;;;;;;;40.53;18.00;;;8.80;99.90;;;;;;5072771;28;20567;-74
2021/11/09 07:23:03;;;;;;;37.63;18.47;;;8.90;99.90;;;;;;5086829;28;20585;-74
2021/11/09 07:25:31;;;;;;;47.27;19.27;;;9.00;99.90;;;;;;5091490;28;20275;-74
2021/11/09 07:27:58;;;;;;;37.40;17.80;;;9.00;99.90;;;;;;5092157;28;20209;-74
2021/11/09 07:30:30;;;;;;;38.80;19.40;;;9.00;99.90;;;;;;5092872;28;20983;-75
2021/11/09 07:32:57;;;;;;;39.33;17.80;;;9.00;99.90;;;;;;5093481;28;20552;-74
2021/11/09 07:35:24;;;;;;;38.27;18.20;;;9.00;99.90;;;;;;5092814;28;20652;-74
2021/11/09 07:37:53;;;;;;;37.43;18.30;;;9.10;99.90;;;;;;5091652;28;20234;-75
2021/11/09 07:40:20;;;;;;;39.00;18.37;;;9.10;99.90;;;;;;5092797;28;20711;-74
2021/11/09 07:42:48;;;;;;;38.60;17.97;;;9.20;99.90;;;;;;5092516;28;20206;-75
2021/11/09 07:45:17;;;;;;;38.63;18.90;;;9.20;99.90;;;;;;5092774;28;20624;-74
2021/11/09 07:47:44;;;;;;;38.57;20.20;;;9.20;99.90;;;;;;5091964;28;20717;-74
2021/11/09 07:50:11;;;;;;;35.77;17.27;;;9.30;99.90;;;;;;5092600;28;20197;-74
2021/11/09 07:52:38;;;;;;;39.73;17.97;;;9.30;99.90;;;;;;5092338;28;20251;-74
2021/11/09 07:55:11;;;;;;;38.60;18.63;;;9.30;99.90;;;;;;5092247;28;20617;-74
2021/11/09 07:57:44;;;;;;;39.40;18.97;;;9.40;99.90;;;;;;5091419;28;20221;-74
2021/11/09 08:00:22;;;;;;;34.50;16.67;;;9.40;99.90;;;;;;5092238;28;20705;-74
2021/11/09 08:03:00;;;;;;;38.10;18.03;;;9.50;99.90;;;;;;5092403;28;20201;-74
2021/11/09 08:05:31;;;;;;;32.07;17.30;;;9.50;99.90;;;;;;5091993;28;20212;-74
2021/11/09 08:08:03;;;;;;;36.53;17.17;;;9.50;99.90;;;;;;5091809;28;20201;-73
2021/11/09 08:10:32;;;;;;;33.97;17.87;;;9.60;99.90;;;;;;5091540;28;20210;-74
2021/11/09 08:12:58;;;;;;;38.97;17.33;;;9.60;99.90;;;;;;5092260;28;20259;-69
2021/11/09 08:15:26;;;;;;;38.57;19.23;;;9.70;99.90;;;;;;5091738;28;20243;-69
2021/11/09 08:17:53;;;;;;;38.10;18.10;;;9.70;99.90;;;;;;5091250;28;20291;-75
2021/11/09 08:20:20;;;;;;;40.80;17.10;;;9.70;99.90;;;;;;5091555;28;20246;-75
2021/11/09 08:22:47;;;;;;;34.93;17.17;;;9.70;99.90;;;;;;5091549;28;20206;-74
2021/11/09 08:25:14;;;;;;;33.30;17.53;;;9.80;99.90;;;;;;5091843;28;20266;-74
2021/11/09 08:27:43;;;;;;;38.03;16.90;;;9.80;99.90;;;;;;5098424;28;20193;-74
2021/11/09 08:30:11;;;;;;;36.53;17.03;;;9.90;99.90;;;;;;5098068;28;20194;-74
2021/11/09 08:32:38;;;;;;;45.87;17.93;;;9.90;99.90;;;;;;5101434;28;20541;-75
2021/11/09 08:35:06;;;;;;;29.83;16.07;;;9.90;99.90;;;;;;5102464;28;20246;-74
2021/11/09 08:37:34;;;;;;;37.20;15.47;;;9.90;99.90;;;;;;5086197;28;20288;-75
2021/11/09 08:40:04;;;;;;;33.80;17.60;;;9.90;99.90;;;;;;5071445;28;20248;-74
2021/11/09 08:42:34;;;;;;;36.93;17.07;;;10.00;99.90;;;;;;5082251;28;20730;-74
2021/11/09 08:45:09;;;;;;;36.50;16.67;;;10.00;99.90;;;;;;5090953;28;20262;-74
2021/11/09 08:47:39;;;;;;;30.67;17.20;;;10.00;99.90;;;;;;5087433;28;20292;-74
2021/11/09 08:50:07;;;;;;;36.70;16.70;;;10.10;99.90;;;;;;5090024;28;20201;-74
2021/11/09 08:52:35;;;;;;;30.77;16.47;;;10.10;99.90;;;;;;5079745;28;20202;-75
2021/11/09 08:55:16;;;;;;;33.23;16.17;;;10.10;99.90;;;;;;5069203;28;20305;-74
2021/11/09 09:06:13;;;;;;;35.13;15.17;;;10.20;99.90;;;;;;5046720;28;20269;-74
2021/11/09 09:08:41;;;;;;;30.57;16.90;;;10.20;99.90;;;;;;5078855;28;20614;-73
2021/11/09 09:11:08;;;;;;;34.53;15.17;;;10.30;99.90;;;;;;5091512;28;20205;-74
2021/11/09 09:13:36;;;;;;;29.67;16.20;;;10.20;99.90;;;;;;5091562;28;20197;-69
2021/11/09 09:16:04;;;;;;;30.77;15.23;;;10.60;99.90;;;;;;5091410;28;20670;-68
2021/11/09 09:18:32;;;;;;;29.90;14.27;;;10.70;99.90;;;;;;5090653;28;20570;-69
2021/11/09 09:21:07;;;;;;;29.80;15.20;;;10.80;99.90;;;;;;5091665;28;20213;-68
2021/11/09 09:23:36;;;;;;;29.83;14.43;;;11.00;99.90;;;;;;5095995;28;20565;-68
2021/11/09 09:26:12;;;;;;;32.90;14.73;;;11.00;99.90;;;;;;5093339;28;20315;-68
2021/11/09 09:29:06;;;;;;;34.93;15.47;;;11.20;99.90;;;;;;5094639;28;20554;-69
2021/11/09 09:32:11;;;;;;;29.87;14.37;;;11.20;99.90;;;;;;5094981;28;20227;-69
2021/11/09 09:56:54;;;;;;;25.70;10.57;;;12.30;99.90;;;;;;5086966;28;20194;-69
2021/11/09 09:59:22;;;;;;;26.80;11.37;;;12.60;99.90;;;;;;5093964;28;20543;-69
2021/11/09 10:02:08;;;;;;;25.10;10.20;;;12.60;99.90;;;;;;5094553;28;20594;-69
2021/11/09 10:04:38;;;;;;;26.07;10.80;;;12.80;99.90;;;;;;5094068;28;20201;-69
2021/11/09 10:07:06;;;;;;;23.90;9.73;;;12.90;99.90;;;;;;5094097;28;20544;-69
2021/11/09 10:09:36;;;;;;;21.27;10.20;;;13.00;99.90;;;;;;5093662;28;20233;-69
2021/11/09 10:12:19;;;;;;;29.33;11.70;;;13.30;99.90;;;;;;5093980;28;20251;-69
2021/11/09 10:14:47;;;;;;;25.93;10.53;;;13.30;99.90;;;;;;5093995;28;20255;-69
2021/11/09 10:17:15;;;;;;;25.43;11.47;;;13.20;99.90;;;;;;5093487;28;20312;-69
2021/11/09 10:19:44;;;;;;;22.97;11.80;;;13.20;99.90;;;;;;5093825;28;20245;-69
2021/11/09 10:22:23;;;;;;;21.90;10.30;;;13.40;99.90;;;;;;5093849;28;20205;-69
2021/11/09 10:24:57;;;;;;;24.07;10.20;;;13.60;99.90;;;;;;5093272;28;20571;-69
2021/11/09 10:27:24;;;;;;;23.17;10.33;;;13.50;99.90;;;;;;5093288;28;20206;-69
2021/11/09 10:29:55;;;;;;;21.17;8.97;;;13.40;99.90;;;;;;5094246;28;20201;-69
2021/11/09 10:32:25;;;;;;;24.80;8.90;;;13.30;99.90;;;;;;5093749;28;20719;-69
2021/11/09 10:34:54;;;;;;;20.10;9.27;;;13.60;99.90;;;;;;5093779;28;20193;-69
2021/11/09 10:37:25;;;;;;;23.23;8.90;;;13.80;99.90;;;;;;5090521;28;20742;-69
2021/11/09 10:39:53;;;;;;;23.10;9.13;;;13.80;99.90;;;;;;5073141;28;20636;-69
2021/11/09 10:42:22;;;;;;;20.37;8.87;;;13.80;99.90;;;;;;5073191;28;20206;-69
2021/11/09 10:44:57;;;;;;;19.90;8.60;;;13.80;99.90;;;;;;5073422;28;20718;-69
2021/11/09 10:47:27;;;;;;;23.30;8.60;;;13.60;99.90;;;;;;5072407;28;20224;-69
2021/11/09 10:49:58;;;;;;;18.83;8.43;;;14.10;99.90;;;;;;5073277;28;20221;-69
2021/11/09 10:52:31;;;;;;;21.70;7.80;;;14.00;99.90;;;;;;5073079;28;20202;-69
2021/11/09 10:55:04;;;;;;;18.80;8.20;;;14.10;99.90;;;;;;5072965;28;20194;-69
2021/11/09 10:57:42;;;;;;;14.33;6.50;;;14.30;99.90;;;;;;5072589;28;20233;-69
2021/11/09 11:00:21;;;;;;;15.53;5.23;;;14.40;99.90;;;;;;5073069;28;20202;-69
2021/11/09 11:05:34;;;;;;;16.23;5.53;;;14.30;99.90;;;;;;5073090;28;20283;-69
2021/11/09 11:08:01;;;;;;;15.23;4.40;;;14.30;99.90;;;;;;5072151;28;20260;-69
2021/11/09 11:10:34;;;;;;;10.80;3.83;;;14.20;99.90;;;;;;5072699;28;20255;-69
2021/11/09 11:13:18;;;;;;;10.07;3.90;;;14.50;99.90;;;;;;5072747;28;20198;-69
2021/11/09 11:16:01;;;;;;;10.53;3.30;;;14.50;99.90;;;;;;5072494;28;20202;-69
2021/11/09 11:18:30;;;;;;;13.37;3.73;;;14.30;99.90;;;;;;5070633;28;20222;-69
2021/11/09 11:20:59;;;;;;;10.97;3.57;;;14.20;99.90;;;;;;5072460;28;20336;-69
2021/11/09 11:23:27;;;;;;;9.13;3.87;;;14.20;99.90;;;;;;5072154;28;20296;-69
2021/11/09 11:25:55;;;;;;;10.63;3.73;;;14.40;99.90;;;;;;5072154;28;20244;-69
2021/11/09 11:28:23;;;;;;;10.80;3.67;;;14.30;99.90;;;;;;5071947;28;20708;-69
2021/11/09 11:30:51;;;;;;;8.47;3.60;;;14.50;99.90;;;;;;5072290;28;20206;-69
2021/11/09 11:33:18;;;;;;;12.50;4.27;;;14.50;99.90;;;;;;5072451;28;20735;-69
2021/11/09 11:35:47;;;;;;;8.57;3.80;;;14.60;99.90;;;;;;5072200;28;20195;-69
2021/11/09 11:38:18;;;;;;;16.27;4.47;;;14.50;99.90;;;;;;5071979;28;20271;-69
2021/11/09 11:40:45;;;;;;;11.73;4.83;;;14.40;99.90;;;;;;5072512;28;20213;-69
2021/11/09 11:43:13;;;;;;;9.27;3.97;;;14.40;99.90;;;;;;5072992;28;20198;-69
2021/11/09 11:45:48;;;;;;;10.47;4.00;;;14.40;99.90;;;;;;5072334;28;20208;-69
2021/11/09 11:48:16;;;;;;;12.17;4.40;;;14.30;99.90;;;;;;5072197;28;20202;-69
2021/11/09 11:50:44;;;;;;;11.77;4.17;;;14.70;99.90;;;;;;5072724;28;20206;-69
2021/11/09 11:53:12;;;;;;;8.83;4.07;;;14.90;99.90;;;;;;5072970;28;20555;-69
2021/11/09 11:55:40;;;;;;;10.10;4.10;;;16.10;99.90;;;;;;5072744;28;20206;-69
2021/11/09 11:58:10;;;;;;;9.27;3.90;;;17.10;99.90;;;;;;5071929;28;20590;-69
2021/11/09 12:00:49;;;;;;;9.43;3.63;;;17.70;98.70;;;;;;5072603;28;20202;-69
2021/11/09 12:03:49;;;;;;;9.23;3.97;;;16.60;97.70;;;;;;5072375;28;20201;-69
2021/11/09 12:06:22;;;;;;;10.23;3.43;;;17.00;97.10;;;;;;5030165;28;20199;-69
2021/11/09 12:08:50;;;;;;;10.20;3.60;;;16.50;98.10;;;;;;5029260;28;20199;-69
2021/11/09 12:11:37;;;;;;;12.90;3.73;;;16.90;97.10;;;;;;5050827;28;20206;-69
2021/11/09 12:14:08;;;;;;;13.57;3.47;;;15.80;98.60;;;;;;5071216;28;20206;-69
2021/11/09 12:16:53;;;;;;;11.17;3.83;;;16.00;97.40;;;;;;5071746;28;20206;-69
2021/11/09 12:20:01;;;;;;;9.80;3.97;;;17.20;95.80;;;;;;5071116;28;20263;-69
2021/11/09 12:22:40;;;;;;;10.25;3.67;;;16.50;95.70;;;;;;5072222;28;20216;-69
2021/11/09 12:25:09;;;;;;;9.23;3.87;;;16.20;97.10;;;;;;5072125;28;20202;-69
2021/11/09 12:28:01;;;;;;;10.40;3.65;;;16.00;96.80;;;;;;5070600;28;20259;-69
2021/11/09 12:30:48;;;;;;;8.57;4.00;;;15.10;98.20;;;;;;5072044;28;20692;-69
2021/11/09 12:33:17;;;;;;;11.23;4.17;;;14.50;99.10;;;;;;5072373;28;20198;-69
2021/11/09 12:35:47;;;;;;;9.10;3.80;;;14.00;99.90;;;;;;5072270;28;20206;-69
2021/11/09 12:38:18;;;;;;;11.93;3.80;;;13.90;99.90;;;;;;5071491;28;20226;-69
2021/11/09 12:40:55;;;;;;;9.10;3.80;;;14.70;99.90;;;;;;5072031;28;20643;-69
2021/11/09 12:43:43;;;;;;;9.97;3.80;;;15.10;98.40;;;;;;5072020;28;20201;-69
2021/11/09 12:46:13;;;;;;;9.77;3.27;;;15.50;99.50;;;;;;5072017;28;20216;-69
2021/11/09 12:48:49;;;;;;;8.13;3.23;;;16.00;97.10;;;;;;5071551;28;20687;-69
2021/11/09 12:51:16;;;;;;;11.70;3.50;;;16.60;96.50;;;;;;5070449;28;20556;-69
2021/11/09 12:53:45;;;;;;;8.83;3.30;;;17.00;96.20;;;;;;5089908;28;20220;-69
2021/11/09 12:56:14;;;;;;;13.77;4.17;;;16.80;94.60;;;;;;5092172;28;20197;-69
2021/11/09 12:58:54;;;;;;;6.70;3.40;;;16.90;94.20;;;;;;5094287;28;20225;-69
2021/11/09 13:01:25;;;;;;;6.40;3.07;;;17.10;93.30;;;;;;5096211;28;20201;-69
2021/11/09 13:04:03;;;;;;;8.68;3.15;;;16.30;93.20;;;;;;5096032;28;20224;-69
2021/11/09 13:06:42;;;;;;;8.17;3.43;;;16.50;94.30;;;;;;5096017;28;20497;-69
2021/11/09 13:09:17;;;;;;;10.03;3.47;;;17.00;94.50;;;;;;5095036;28;20617;-69
2021/11/09 13:11:48;;;;;;;8.13;2.88;;;17.70;92.40;;;;;;5095025;28;20211;-69
2021/11/09 13:14:17;;;;;;;7.38;3.20;;;17.00;92.40;;;;;;5095688;28;20212;-69
2021/11/09 13:16:49;;;;;;;3.60;2.43;;;16.60;94.10;;;;;;5096129;28;20289;-69
2021/11/09 13:19:18;;;;;;;7.10;3.00;;;15.60;94.60;;;;;;5094947;28;20283;-69
2021/11/09 13:21:52;;;;;;;6.77;3.27;;;15.10;95.90;;;;;;5095774;28;20209;-69
2021/11/09 13:24:20;;;;;;;10.20;3.60;;;14.60;96.20;;;;;;5095441;28;20406;-69
2021/11/09 13:26:51;;;;;;;7.63;3.33;;;14.40;98.20;;;;;;5095524;28;20675;-69
2021/11/09 13:29:21;;;;;;;7.83;4.13;;;14.30;98.40;;;;;;5095086;28;20561;-69
2021/11/09 13:31:48;;;;;;;9.50;2.77;;;14.10;97.40;;;;;;5095812;28;20202;-69
2021/11/09 13:34:15;;;;;;;7.00;2.87;;;14.30;98.30;;;;;;5094965;28;20674;-69
2021/11/09 13:36:41;;;;;;;7.23;2.77;;;14.50;97.30;;;;;;5094853;28;20611;-69
2021/11/09 13:39:08;;;;;;;5.03;2.90;;;14.40;97.60;;;;;;5094382;28;20217;-69
2021/11/09 13:41:37;;;;;;;5.30;2.93;;;14.10;98.60;;;;;;5094329;28;20205;-69
2021/11/09 13:44:08;;;;;;;5.03;2.40;;;13.70;97.40;;;;;;5092316;28;20205;-69
2021/11/09 13:46:39;;;;;;;8.03;3.07;;;13.80;98.90;;;;;;5083595;28;20213;-69
2021/11/09 13:49:09;;;;;;;8.30;2.67;;;13.80;98.30;;;;;;5087875;28;20215;-69
2021/11/09 13:51:40;;;;;;;8.80;2.87;;;13.80;98.60;;;;;;5090111;28;20571;-68
2021/11/09 13:54:14;;;;;;;4.53;3.13;;;13.90;97.80;;;;;;5090514;28;20259;-69
2021/11/09 13:56:46;;;;;;;6.33;3.13;;;13.80;96.90;;;;;;5087191;28;20201;-69
2021/11/09 13:59:14;;;;;;;7.23;3.10;;;13.60;98.00;;;;;;5081797;28;20233;-69
2021/11/09 14:01:51;;;;;;;8.63;2.43;;;13.60;97.70;;;;;;5087358;28;20296;-70
2021/11/09 14:04:35;;;;;;;3.93;2.30;;;13.50;98.30;;;;;;5084320;28;20204;-69
2021/11/09 14:10:25;;;;;;;6.33;2.70;;;13.30;97.30;;;;;;5088978;28;20202;-69
2021/11/09 14:15:54;;;;;;;8.17;2.70;;;13.20;97.90;;;;;;5095284;28;20194;-69
2021/11/09 14:18:24;;;;;;;3.33;2.33;;;13.10;98.50;;;;;;5102243;28;20286;-69
2021/11/09 14:20:53;;;;;;;3.50;2.10;;;13.10;99.00;;;;;;5104392;28;20238;-69
2021/11/09 14:23:32;;;;;;;4.13;2.20;;;13.10;98.90;;;;;;5095922;28;20205;-69
2021/11/09 14:26:00;;;;;;;4.57;2.17;;;13.10;99.30;;;;;;5092695;28;20201;-69
2021/11/09 14:28:34;;;;;;;3.87;2.50;;;13.10;99.70;;;;;;5089496;28;20225;-69
2021/11/09 14:31:13;;;;;;;4.47;2.57;;;13.00;99.90;;;;;;5091182;28;20675;-69
2021/11/09 14:33:42;;;;;;;4.13;2.30;;;12.90;99.70;;;;;;5090379;28;20208;-69
2021/11/09 14:36:23;;;;;;;7.83;2.70;;;12.70;99.90;;;;;;5092769;28;20221;-69
2021/11/09 14:38:53;;;;;;;5.00;2.10;;;12.60;99.90;;;;;;5093180;28;20218;-69
2021/11/09 14:41:25;;;;;;;5.47;1.90;;;12.60;99.90;;;;;;5093766;28;20197;-69
2021/11/09 14:43:58;;;;;;;3.70;1.90;;;12.60;99.90;;;;;;5093906;28;20194;-70